Flight Information

DEPARTURE
NEW CUYAMA, CA
Elevation:
2203
Runways:
10/28 - 3940x60 - ASPH-P
CTAF:
122.900
DESTINATION
SAN LUIS OBISPO, CA
Elevation:
212
TPA:
1212 (est.)
Runways:
7/25 - 2500x100 - ASPH-G
11/29 - 6101x150 - ASPH-G
ATIS:
120.6
Tower:
124
Ground:
121.6


50.3 NM291° True-14° Var276° HDG

Flight Plan:
(click to file on line)

1. Type
2. Aircraft Identification
3. Aircraft Type / Special Equipment
4. True Airspeed
kts
5. Departure Airport
(ICAO code)
6. Arriving Airport
(ICAO code)
7. Cruising Altitude
ft
8. Alternate Airport
(ICAO code)
9. Route of Flight
10. Remarks


00:00:00 Departure ATIS: Destination ATIS:

Clearance Limit:
Route:
Altitude: Expect in minutes
Frequency:
Transponder: (7500 Hijack / 7600 Lost Comms / 7700 Emergency)


KSBA 282153Z AUTO 15006KT 10SM CLR 21/M01 A3019 RMK AO2 SLP224 T02111006 $
Time: 2022-01-28T21:53:00Z
1643407027
Winds: 150 @ 6 kts
Visibility: 10.0 sm
Clouds (AGL): CLR
Temperature: 21.1 C
Dew Point: -0.6 C
Pressure: 30.188976 in Hgbr

KSBP 282056Z 00000KT 10SM CLR 23/M04 A3021 RMK AO2 SLP229 T02281044 58021
Time: 2022-01-28T20:56:00Z
1643407027
Winds: calm
Visibility: 10.0 sm
Clouds (AGL): CLR
Temperature: 22.8 C
Dew Point: -4.4 C
Pressure: 30.209646 in Hgbr


Notes:

Data extracted from FAA Digital Chart Supplement. Effective: 0901Z Thursday, DEC 2, 2021 to 0901Z Thursday, JAN 27, 2022
Current ATIS data is provided courtisy of PilotEdge.